EW7082 Weather Reports


Display with metric or nautical units.
time (UTC)temp
F
wind
direction
speed
MPH
gust
MPH
rain 1hr
in
rain 24hr
in
rain mn
in
humidity
%
barometer
mb
20220519212211 54 281 10.0 18.0 0.00 0.00 0.00 73 1023.4
20220519211711 54 285 13.0 20.0 0.00 0.00 0.00 70 1023.4
20220519211212 55 283 12.0 16.0 0.00 0.00 0.00 69 1023.4
20220519210711 54 283 9.0 18.0 0.00 0.00 0.00 69 1023.3
20220519210212 55 295 12.0 17.0 0.00 0.00 0.00 67 1023.3
20220519205712 55 272 10.0 17.0 0.00 0.00 0.00 69 1023.4
20220519205212 55 313 10.0 18.0 0.00 0.00 0.00 66 1023.4
20220519204711 54 284 8.0 17.0 0.00 0.00 0.00 70 1023.5
20220519204212 54 289 12.0 18.0 0.00 0.00 0.00 66 1023.5
20220519203712 54 279 10.0 18.0 0.00 0.00 0.00 69 1023.5
20220519203211 54 302 10.0 18.0 0.00 0.00 0.00 73 1023.6
20220519202712 54 300 8.0 20.0 0.00 0.00 0.00 73 1023.5
20220519202211 54 282 13.0 20.0 0.00 0.00 0.00 72 1023.5
20220519201711 53 297 14.0 21.0 0.00 0.00 0.00 69 1023.4
20220519201212 54 270 13.0 21.0 0.00 0.00 0.00 70 1023.4
20220519200711 54 321 9.0 16.0 0.00 0.00 0.00 72 1023.3
20220519200211 54 316 12.0 17.0 0.00 0.00 0.00 71 1023.4
20220519195711 54 276 10.0 15.0 0.00 0.00 0.00 71 1023.4
20220519195211 54 310 8.0 14.0 0.00 0.00 0.00 74 1023.3
20220519194711 55 283 9.0 20.0 0.00 0.00 0.00 71 1023.4
20220519194211 55 288 10.0 15.0 0.00 0.00 0.00 70 1023.3
20220519193711 54 295 7.0 13.0 0.00 0.00 0.00 72 1023.3
20220519193211 54 282 9.0 18.0 0.00 0.00 0.00 73 1023.2
20220519192712 54 283 9.0 15.0 0.00 0.00 0.00 72 1023.2
20220519192211 54 285 12.0 20.0 0.00 0.00 0.00 67 1023.2
20220519191711 54 264 13.0 18.0 0.00 0.00 0.00 67 1023.1
20220519191212 54 272 11.0 18.0 0.00 0.00 0.00 69 1023.1
20220519190711 53 286 9.0 20.0 0.00 0.00 0.00 70 1023.1
20220519190211 53 277 11.0 21.0 0.00 0.00 0.00 69 1023.1
20220519185712 53 319 13.0 20.0 0.00 0.00 0.00 69 1023.1
20220519185211 53 290 12.0 16.0 0.00 0.00 0.00 69 1023.1
20220519184711 53 300 10.0 20.0 0.00 0.00 0.00 71 1023.0
20220519184212 53 296 9.0 17.0 0.00 0.00 0.00 74 1023.0
20220519183711 53 296 11.0 17.0 0.00 0.00 0.00 71 1023.1
20220519183211 53 299 12.0 21.0 0.00 0.00 0.00 71 1023.0
20220519182712 53 304 9.0 20.0 0.00 0.00 0.00 72 1023.0
20220519182211 52 280 12.0 20.0 0.00 0.00 0.00 72 1022.9
20220519181711 52 288 12.0 26.0 0.00 0.00 0.00 70 1023.0
20220519181211 52 281 12.0 18.0 0.00 0.00 0.00 74 1023.0
20220519180711 53 282 11.0 20.0 0.00 0.00 0.00 74 1022.9
20220519180212 52 272 12.0 21.0 0.00 0.00 0.00 71 1022.9
20220519175712 52 280 13.0 24.0 0.00 0.00 0.00 71 1022.9
20220519175211 52 303 11.0 18.0 0.00 0.00 0.00 70 1022.8
20220519174711 52 284 10.0 17.0 0.00 0.00 0.00 73 1022.8
20220519174211 51 280 14.0 22.0 0.00 0.00 0.00 72 1022.7
20220519173711 51 277 13.0 21.0 0.00 0.00 0.00 73 1022.7
20220519173210 51 288 13.0 20.0 0.00 0.00 0.00 72 1022.6
20220519172711 52 304 13.0 20.0 0.00 0.00 0.00 72 1022.7
20220519172211 51 311 13.0 21.0 0.00 0.00 0.00 71 1022.5
20220519171711 52 284 11.0 16.0 0.00 0.00 0.00 71 1022.5
20220519171211 51 285 12.0 20.0 0.00 0.00 0.00 71 1022.4
20220519170711 51 297 11.0 18.0 0.00 0.00 0.00 70 1022.3
20220519170211 51 313 14.0 28.0 0.00 0.00 0.00 69 1022.3
20220519165711 52 284 10.0 20.0 0.00 0.00 0.00 70 1022.4
20220519165211 52 283 12.0 20.0 0.00 0.00 0.00 70 1022.2
20220519164711 52 306 10.0 20.0 0.00 0.00 0.00 71 1022.2
20220519164212 52 291 9.0 16.0 0.00 0.00 0.00 69 1022.2
20220519163711 51 285 11.0 20.0 0.00 0.00 0.00 69 1022.2
20220519163211 52 271 9.0 15.0 0.00 0.00 0.00 68 1022.2
20220519162711 52 283 8.0 15.0 0.00 0.00 0.00 69 1022.1
20220519162211 52 300 10.0 16.0 0.00 0.00 0.00 68 1022.2
20220519161711 51 290 10.0 17.0 0.00 0.01 0.00 71 1022.1
20220519161211 51 279 7.0 13.0 0.00 0.01 0.00 73 1022.1
20220519160711 49 274 9.0 16.0 0.00 0.01 0.00 74 1022.1
20220519160211 49 285 6.0 13.0 0.00 0.01 0.00 73 1022.1
20220519155712 49 278 8.0 12.0 0.00 0.01 0.00 72 1022.1
20220519155211 49 277 7.0 12.0 0.00 0.01 0.00 73 1022.1
20220519154711 49 281 9.0 13.0 0.00 0.01 0.00 72 1022.1
20220519154211 49 272 9.0 15.0 0.00 0.01 0.00 73 1022.0
20220519153711 49 263 8.0 12.0 0.00 0.01 0.00 73 1022.0
20220519153211 49 273 10.0 15.0 0.00 0.01 0.00 73 1022.0
20220519152711 48 256 9.0 14.0 0.00 0.01 0.00 73 1022.0
20220519152211 48 260 8.0 16.0 0.00 0.01 0.00 74 1022.0
20220519151711 48 260 9.0 15.0 0.00 0.01 0.00 74 1021.9
20220519151212 48 261 6.0 12.0 0.00 0.01 0.00 74 1022.0
20220519150711 48 261 7.0 16.0 0.00 0.01 0.00 74 1021.9
20220519150211 48 268 7.0 12.0 0.00 0.01 0.00 74 1022.0
20220519145711 48 260 7.0 12.0 0.00 0.01 0.00 74 1021.9
20220519145210 48 267 5.0 14.0 0.00 0.01 0.00 74 1022.0
20220519144711 48 291 6.0 17.0 0.00 0.01 0.00 73 1022.0
20220519144211 48 273 7.0 14.0 0.00 0.01 0.00 73 1022.0
20220519143711 48 272 8.0 12.0 0.00 0.01 0.00 72 1021.9
20220519143210 48 267 6.0 12.0 0.00 0.01 0.00 72 1021.9
20220519142711 48 249 5.0 10.0 0.00 0.01 0.00 72 1021.8
20220519142211 48 248 7.0 12.0 0.00 0.01 0.00 72 1021.7
20220519141711 48 249 5.0 10.0 0.00 0.01 0.00 73 1021.7
20220519141211 47 235 5.0 8.0 0.00 0.01 0.00 73 1021.6
20220519140711 47 242 4.0 7.0 0.00 0.01 0.00 73 1021.5
20220519140211 47 236 6.0 12.0 0.00 0.01 0.00 73 1021.5
20220519135712 47 227 2.0 7.0 0.00 0.01 0.00 77 1021.5
20220519135211 47 222 4.0 7.0 0.00 0.01 0.00 75 1021.4
20220519134710 47 223 4.0 8.0 0.00 0.01 0.00 75 1021.4
20220519134212 47 249 3.0 7.0 0.00 0.01 0.00 75 1021.5
20220519133711 47 240 4.0 7.0 0.00 0.01 0.00 75 1021.4
20220519133211 46 247 4.0 7.0 0.00 0.01 0.00 76 1021.3
20220519132712 46 235 5.0 8.0 0.00 0.01 0.00 76 1021.3
20220519132210 46 234 5.0 7.0 0.00 0.01 0.00 76 1021.2
20220519131711 46 237 5.0 9.0 0.00 0.01 0.00 76 1021.3
20220519131211 47 224 4.0 8.0 0.00 0.01 0.00 75 1021.3
20220519130711 47 243 4.0 12.0 0.00 0.01 0.00 74 1021.2
20220519130211 47 251 7.0 12.0 0.00 0.01 0.00 74 1021.2
20220519125711 47 259 5.0 12.0 0.00 0.01 0.00 73 1021.1
20220519125211 47 256 6.0 12.0 0.00 0.01 0.00 73 1021.1
20220519124711 47 245 6.0 9.0 0.00 0.01 0.00 73 1021.1
20220519124211 47 258 7.0 12.0 0.00 0.01 0.00 73 1021.0
20220519123711 47 260 6.0 12.0 0.00 0.01 0.00 75 1021.0
20220519123210 48 248 5.0 10.0 0.00 0.01 0.00 74 1020.9
20220519122711 48 267 5.0 12.0 0.00 0.01 0.00 73 1020.9
20220519122211 48 279 5.0 12.0 0.00 0.01 0.00 72 1021.0
20220519121711 48 274 8.0 14.0 0.00 0.01 0.00 71 1021.0
20220519121211 48 270 6.0 10.0 0.00 0.01 0.00 71 1021.1
20220519120710 48 255 6.0 14.0 0.00 0.01 0.00 71 1021.1
20220519120211 48 243 9.0 16.0 0.00 0.01 0.00 70 1021.1
20220519115711 48 255 9.0 12.0 0.00 0.01 0.00 70 1021.1
20220519115211 48 257 9.0 15.0 0.00 0.01 0.00 69 1021.1
20220519114711 48 256 8.0 14.0 0.00 0.01 0.00 70 1021.1
20220519114211 48 266 7.0 12.0 0.00 0.01 0.00 70 1021.0
20220519113710 48 280 7.0 14.0 0.00 0.01 0.00 70 1021.1
20220519113210 47 261 6.0 13.0 0.00 0.01 0.00 71 1021.1
20220519112711 47 261 5.0 9.0 0.00 0.01 0.00 71 1021.1
20220519112210 47 266 9.0 12.0 0.00 0.02 0.00 71 1021.1
20220519111711 46 249 9.0 12.0 0.00 0.02 0.00 73 1021.0
20220519111211 45 241 5.0 9.0 0.00 0.02 0.00 75 1021.1
20220519110711 45 247 3.0 5.0 0.00 0.02 0.00 77 1021.2
20220519110210 44 329 1.0 3.0 0.00 0.02 0.00 79 1021.2
20220519105711 43 328 2.0 3.0 0.00 0.02 0.00 80 1021.1
20220519105211 43 178 1.0 2.0 0.00 0.02 0.00 81 1021.1
20220519104710 43 178 2.0 3.0 0.00 0.02 0.00 82 1020.8
20220519104211 43 183 3.0 6.0 0.00 0.03 0.00 82 1020.8
20220519103711 42 188 4.0 6.0 0.00 0.03 0.00 83 1020.8
20220519103211 42 214 3.0 5.0 0.00 0.03 0.00 83 1020.8
20220519102711 43 214 3.0 6.0 0.00 0.03 0.00 82 1020.9
20220519102211 43 228 3.0 5.0 0.00 0.03 0.00 82 1021.0
20220519101710 43 202 2.0 3.0 0.00 0.03 0.00 82 1021.0
20220519101211 44 202 3.0 3.0 0.00 0.03 0.00 80 1021.0
20220519100711 45 235 3.0 6.0 0.00 0.03 0.00 79 1021.1
20220519100211 45 194 2.0 3.0 0.00 0.03 0.00 78 1021.2
20220519095712 46 182 3.0 5.0 0.00 0.03 0.00 76 1021.2
20220519095210 46 246 3.0 7.0 0.00 0.03 0.00 75 1021.1
20220519094711 47 252 2.0 3.0 0.00 0.03 0.00 75 1021.2
20220519094211 47 232 3.0 7.0 0.00 0.03 0.00 74 1021.2
20220519093711 47 217 5.0 9.0 0.00 0.03 0.00 74 1021.1
20220519093211 47 255 5.0 9.0 0.00 0.03 0.00 75 1021.1
20220519092711 47 244 5.0 12.0 0.00 0.03 0.00 76 1021.1
20220519092211 48 233 7.0 13.0 0.00 0.03 0.00 76 1021.1
20220519091711 48 256 7.0 12.0 0.00 0.04 0.00 76 1021.2
20220519091211 48 263 4.0 10.0 0.00 0.04 0.00 76 1021.2
20220519090711 48 266 5.0 10.0 0.00 0.05 0.00 75 1021.2
20220519090211 48 259 8.0 15.0 0.00 0.05 0.00 75 1021.1
20220519085711 48 275 8.0 14.0 0.00 0.05 0.00 74 1021.1
20220519085211 48 263 7.0 15.0 0.00 0.06 0.00 73 1021.1
20220519084711 48 263 5.0 10.0 0.00 0.06 0.00 72 1021.0
20220519084211 48 267 9.0 18.0 0.00 0.06 0.00 71 1021.0
20220519083711 48 249 9.0 15.0 0.00 0.06 0.00 70 1021.0
20220519083211 48 259 5.0 12.0 0.00 0.06 0.00 71 1020.9
20220519082711 48 253 7.0 10.0 0.00 0.06 0.00 71 1020.9
20220519082211 48 262 3.0 6.0 0.00 0.06 0.00 72 1021.0
20220519081711 48 276 4.0 12.0 0.00 0.06 0.00 71 1020.9
20220519081211 48 244 5.0 8.0 0.00 0.06 0.00 71 1020.8
20220519080711 48 240 3.0 8.0 0.00 0.06 0.00 70 1020.8
20220519080210 48 234 5.0 12.0 0.00 0.06 0.00 70 1020.7
20220519075711 49 243 6.0 14.0 0.00 0.06 0.00 70 1020.6
20220519075210 49 264 9.0 17.0 0.00 0.06 0.00 70 1020.6
20220519074710 49 252 9.0 15.0 0.00 0.06 0.00 70 1020.5
20220519074211 49 236 6.0 10.0 0.00 0.06 0.00 71 1020.5
20220519073711 49 258 8.0 12.0 0.00 0.06 0.00 70 1020.4
20220519073210 49 252 9.0 12.0 0.00 0.06 0.00 70 1020.4
20220519072712 49 246 6.0 14.0 0.00 0.06 0.00 71 1020.3
20220519072211 49 245 7.0 17.0 0.00 0.06 0.00 72 1020.4
20220519071711 49 263 8.0 15.0 0.00 0.06 0.00 73 1020.5
20220519071211 49 260 9.0 17.0 0.00 0.06 0.00 72 1020.4
20220519070710 49 278 9.0 17.0 0.00 0.06 0.00 71 1020.4
20220519070210 49 259 10.0 16.0 0.00 0.06 0.00 70 1020.3
20220519065711 49 276 7.0 16.0 0.00 0.06 0.06 69 1020.2
20220519065210 49 265 9.0 18.0 0.00 0.06 0.06 67 1020.1
20220519064710 49 273 9.0 18.0 0.00 0.06 0.06 66 1020.1
20220519064211 50 276 8.0 14.0 0.00 0.06 0.06 66 1020.1
20220519063710 50 275 9.0 17.0 0.00 0.06 0.06 65 1020.1
20220519063210 50 275 9.0 16.0 0.00 0.06 0.06 64 1020.0
20220519062711 50 282 10.0 17.0 0.00 0.06 0.06 64 1020.0
20220519062211 50 272 9.0 18.0 0.00 0.06 0.06 66 1020.1
20220519061711 50 266 10.0 20.0 0.00 0.06 0.06 68 1020.1
20220519061211 50 271 10.0 18.0 0.00 0.06 0.06 67 1020.1
20220519060710 50 271 13.0 20.0 0.00 0.06 0.06 67 1020.0
20220519060211 50 269 10.0 20.0 0.00 0.06 0.06 69 1020.0
20220519055711 50 279 10.0 20.0 0.00 0.06 0.06 69 1020.0
20220519055210 50 254 14.0 20.0 0.00 0.06 0.06 70 1020.0
20220519054710 49 264 11.0 16.0 0.00 0.06 0.06 70 1020.0
20220519054211 49 275 9.0 20.0 0.00 0.06 0.06 72 1020.1
20220519053710 50 277 6.0 18.0 0.00 0.06 0.06 72 1020.3
20220519053211 50 246 11.0 20.0 0.00 0.06 0.06 70 1020.3
20220519052711 50 277 10.0 17.0 0.00 0.06 0.06 70 1020.2
20220519052210 50 284 9.0 14.0 0.00 0.06 0.06 67 1020.3
20220519051710 49 277 6.0 12.0 0.00 0.06 0.06 68 1020.2
20220519051211 49 256 3.0 7.0 0.00 0.06 0.06 69 1020.2
20220519050710 49 252 3.0 5.0 0.00 0.06 0.06 69 1020.0
20220519050210 49 237 3.0 9.0 0.00 0.06 0.06 68 1019.9
20220519045711 50 241 2.0 3.0 0.00 0.06 0.06 68 1019.9
20220519045210 50 344 5.0 10.0 0.00 0.06 0.06 67 1019.8
20220519044711 49 292 4.0 10.0 0.00 0.06 0.06 68 1019.8
20220519044211 49 274 3.0 6.0 0.00 0.06 0.06 67 1019.8
20220519043710 50 226 3.0 10.0 0.00 0.06 0.06 68 1019.5
20220519043211 50 235 4.0 13.0 0.00 0.06 0.06 68 1019.4
20220519042711 50 292 6.0 17.0 0.00 0.06 0.06 69 1019.4
20220519042210 50 294 6.0 15.0 0.00 0.06 0.06 70 1019.1
20220519041710 50 305 10.0 24.0 0.00 0.06 0.06 69 1019.0
20220519041211 50 298 10.0 16.0 0.00 0.06 0.06 69 1018.9
20220519040710 50 280 10.0 20.0 0.00 0.06 0.06 69 1018.6
20220519040210 50 303 6.0 16.0 0.00 0.06 0.06 71 1018.6
20220519035711 50 314 10.0 21.0 0.00 0.06 0.06 69 1018.6
20220519035210 51 319 7.0 12.0 0.00 0.06 0.06 66 1018.4
20220519034711 51 309 9.0 14.0 0.00 0.06 0.06 65 1018.4
20220519034211 51 307 9.0 16.0 0.00 0.06 0.06 65 1018.1
20220519033711 51 325 7.0 16.0 0.00 0.06 0.06 66 1018.0
20220519033210 51 307 9.0 14.0 0.00 0.06 0.06 65 1017.9
20220519032711 52 304 6.0 12.0 0.00 0.06 0.06 64 1017.7
20220519032210 52 301 8.0 12.0 0.00 0.06 0.06 63 1017.7
20220519031710 53 318 5.0 7.0 0.00 0.06 0.06 59 1017.4
20220519031211 53 297 6.0 12.0 0.00 0.06 0.06 57 1017.3
20220519030710 53 268 9.0 17.0 0.00 0.06 0.06 55 1017.3
20220519030210 54 273 9.0 14.0 0.00 0.06 0.06 54 1017.4
20220519025711 54 265 9.0 14.0 0.00 0.06 0.06 50 1017.5
20220519025211 55 259 10.0 14.0 0.00 0.06 0.06 50 1017.5
20220519024710 55 261 10.0 17.0 0.00 0.06 0.06 52 1017.5
20220519024210 54 249 9.0 15.0 0.00 0.06 0.06 55 1017.5
20220519023711 54 259 10.0 15.0 0.00 0.06 0.06 57 1017.4
20220519023210 54 264 9.0 17.0 0.00 0.06 0.06 63 1017.4
20220519022711 53 248 10.0 22.0 0.00 0.06 0.06 65 1017.4
20220519022210 53 258 10.0 20.0 0.00 0.06 0.06 66 1017.6
20220519021710 53 260 13.0 21.0 0.00 0.06 0.06 65 1017.6
20220519021211 53 253 13.0 31.0 0.00 0.06 0.06 66 1017.6
20220519020711 53 254 15.0 23.0 0.00 0.06 0.06 66 1017.7
20220519020211 54 256 13.0 26.0 0.00 0.06 0.06 66 1017.6
20220519015711 54 273 16.0 26.0 0.00 0.06 0.06 66 1017.5
20220519015211 54 268 14.0 26.0 0.00 0.06 0.06 66 1017.7
20220519014710 54 262 14.0 21.0 0.00 0.06 0.06 64 1017.6
20220519014211 54 268 15.0 26.0 0.00 0.06 0.06 64 1017.6
20220519013710 54 263 16.0 30.0 0.00 0.06 0.06 65 1017.7
20220519013210 55 270 16.0 26.0 0.00 0.06 0.06 65 1017.8
20220519012711 55 269 15.0 25.0 0.00 0.06 0.06 64 1017.8
20220519012210 55 266 13.0 22.0 0.00 0.06 0.06 65 1017.8
20220519011711 55 269 12.0 23.0 0.00 0.06 0.06 65 1017.7
20220519011211 55 262 16.0 26.0 0.00 0.06 0.06 63 1017.7
20220519010711 55 257 11.0 23.0 0.00 0.06 0.06 65 1017.7
20220519010211 55 265 14.0 25.0 0.00 0.06 0.06 63 1017.6
20220519005710 56 262 12.0 24.0 0.00 0.06 0.06 64 1017.4
20220519005210 56 278 13.0 20.0 0.00 0.06 0.06 64 1017.4
20220519004711 56 270 14.0 28.0 0.00 0.06 0.06 64 1017.3
20220519004210 56 275 18.0 26.0 0.00 0.06 0.06 63 1017.2
20220519003710 56 267 16.0 23.0 0.00 0.06 0.06 64 1017.3
20220519003211 56 264 14.0 22.0 0.00 0.06 0.06 65 1017.1
20220519002711 56 265 18.0 26.0 0.00 0.06 0.06 64 1017.1
20220519002210 56 268 16.0 28.0 0.00 0.06 0.06 64 1017.3
20220519001711 56 259 15.0 22.0 0.00 0.06 0.06 64 1017.2
20220519001211 56 257 15.0 29.0 0.00 0.06 0.06 65 1017.3
20220519000710 56 268 13.0 22.0 0.00 0.06 0.06 65 1017.3
20220519000211 56 274 14.0 26.0 0.00 0.06 0.06 66 1017.5
20220518235710 57 285 16.0 23.0 0.00 0.06 0.06 63 1017.5
20220518235210 57 264 16.0 29.0 0.00 0.06 0.06 64 1017.6
20220518234710 57 271 15.0 28.0 0.00 0.06 0.06 63 1017.5
20220518234211 57 279 13.0 24.0 0.00 0.06 0.06 64 1017.5
20220518233711 56 280 15.0 35.0 0.00 0.06 0.06 66 1017.6
20220518233210 57 259 14.0 28.0 0.00 0.06 0.06 65 1017.7
20220518232710 57 277 17.0 29.0 0.00 0.06 0.06 65 1017.7
20220518232210 57 282 12.0 24.0 0.00 0.06 0.06 67 1017.6
20220518231710 56 271 12.0 22.0 0.00 0.06 0.06 70 1017.7
20220518231211 56 280 14.0 25.0 0.00 0.06 0.06 70 1017.7
20220518230710 57 296 12.0 24.0 0.00 0.06 0.06 68 1017.7
20220518230211 57 294 13.0 26.0 0.00 0.06 0.06 65 1017.6
20220518225711 57 279 12.0 23.0 0.00 0.06 0.06 68 1017.6
20220518225210 56 278 13.0 26.0 0.00 0.06 0.06 69 1017.5
20220518224710 56 283 13.0 24.0 0.00 0.06 0.06 71 1017.6
20220518224211 55 270 15.0 25.0 0.00 0.06 0.06 72 1017.6
20220518223710 55 277 14.0 25.0 0.00 0.06 0.06 76 1017.7
20220518223210 55 285 14.0 25.0 0.00 0.06 0.06 73 1017.6
20220518222711 56 283 12.0 24.0 0.00 0.06 0.06 72 1017.7
20220518222210 56 273 12.0 22.0 0.00 0.06 0.06 71 1017.6
20220518221710 56 294 16.0 25.0 0.00 0.06 0.06 70 1017.8
20220518221211 56 286 13.0 24.0 0.00 0.06 0.06 70 1017.8
20220518220710 56 278 15.0 26.0 0.00 0.06 0.06 72 1017.6
20220518220210 56 274 13.0 23.0 0.00 0.06 0.06 71 1017.7
20220518215710 56 306 13.0 25.0 0.00 0.06 0.06 70 1017.6
20220518215210 56 288 14.0 22.0 0.00 0.06 0.06 70 1017.5
20220518214710 56 267 16.0 26.0 0.00 0.06 0.06 66 1017.6
20220518214211 57 291 10.0 17.0 0.00 0.06 0.06 65 1017.5
20220518213710 56 288 12.0 20.0 0.00 0.06 0.06 68 1017.6
20220518213210 55 276 10.0 20.0 0.00 0.06 0.06 69 1017.6
20220518212710 56 298 13.0 21.0 0.00 0.06 0.06 69 1017.6